Time;durP1;ratioP1;P1;durP2;ratioP2;P2;SDS_P1;SDS_P2;PMS_P1;PMS_P2;Temp;Humidity;BMP_temperature;BMP_pressure;BME280_temperature;BME280_humidity;BME280_pressure;Samples;Min_cycle;Max_cycle;Signal;HPM_P1;HPM_P2
2022/03/28 00:00:03;;;;;;;2.53;1.00;;;;;;;-6.47;44.85;99038.41;5058410;28;20054;-63
2022/03/28 00:02:30;;;;;;;1.75;1.33;;;;;;;-6.43;45.16;99038.31;5045099;28;20036;-63
2022/03/28 00:04:55;;;;;;;2.38;0.98;;;;;;;-6.43;44.35;99034.91;5039113;28;20048;-63
2022/03/28 00:07:20;;;;;;;0.77;0.77;;;;;;;-6.43;44.67;99034.91;5037850;28;20032;-65
2022/03/28 00:09:44;;;;;;;0.68;0.45;;;;;;;-6.48;45.30;99037.53;5037335;28;20052;-69
2022/03/28 00:12:10;;;;;;;1.52;1.23;;;;;;;-6.42;45.01;99034.00;5019354;28;20135;-64
2022/03/28 00:14:35;;;;;;;1.98;1.17;;;;;;;-6.52;44.72;99035.88;5019683;28;20044;-63
2022/03/28 00:17:00;;;;;;;3.17;0.95;;;;;;;-6.49;44.61;99029.78;5023158;28;20040;-63
2022/03/28 00:19:25;;;;;;;4.15;1.27;;;;;;;-6.59;44.30;99034.25;5041380;28;20125;-62
2022/03/28 00:21:50;;;;;;;1.77;1.08;;;;;;;-6.59;44.76;99031.66;5039748;28;20052;-64
2022/03/28 00:24:15;;;;;;;4.20;1.40;;;;;;;-6.57;44.88;99027.31;5041491;28;20045;-67
2022/03/28 00:26:40;;;;;;;5.35;4.85;;;;;;;-6.54;44.14;99032.41;5038945;28;20048;-64
2022/03/28 00:29:05;;;;;;;2.83;1.48;;;;;;;-6.53;44.29;99034.16;5041934;28;20055;-67
2022/03/28 00:31:30;;;;;;;2.92;1.35;;;;;;;-6.56;44.19;99035.94;5054280;28;20052;-66
2022/03/28 00:33:55;;;;;;;1.98;1.15;;;;;;;-6.61;44.01;99036.84;5020841;28;20074;-67
2022/03/28 00:36:20;;;;;;;0.98;0.57;;;;;;;-6.65;44.89;99031.69;5043963;28;20695;-65
2022/03/28 00:38:45;;;;;;;1.63;0.80;;;;;;;-6.60;43.98;99028.19;5030345;28;20079;-66
2022/03/28 00:41:10;;;;;;;0.85;0.55;;;;;;;-6.63;44.02;99024.78;5036286;28;20131;-68
2022/03/28 00:43:42;;;;;;;0.38;0.38;;;;;;;-6.66;44.18;99030.00;5036620;28;20094;-69
2022/03/28 00:46:06;;;;;;;1.80;0.88;;;;;;;-6.64;44.50;99031.69;5036581;28;20049;-68
2022/03/28 00:48:31;;;;;;;2.15;1.45;;;;;;;-6.72;43.27;99017.13;5036276;28;20048;-68
2022/03/28 00:50:56;;;;;;;2.05;0.90;;;;;;;-6.74;44.33;99021.47;5035959;28;20460;-68
2022/03/28 00:53:21;;;;;;;2.13;1.20;;;;;;;-6.79;44.03;99024.13;5037652;28;20047;-69
2022/03/28 00:55:46;;;;;;;1.50;1.00;;;;;;;-6.74;44.25;99024.03;5019576;28;20052;-70
2022/03/28 00:58:11;;;;;;;3.45;0.80;;;;;;;-6.81;43.25;99025.88;4985706;28;20037;-67
2022/03/28 01:00:36;;;;;;;1.48;0.93;;;;;;;-6.81;44.00;99018.09;5035931;28;20036;-67
2022/03/28 01:03:01;;;;;;;1.30;0.90;;;;;;;-6.78;44.24;99012.03;5030853;28;20040;-66
2022/03/28 01:05:26;;;;;;;1.80;1.13;;;;;;;-6.72;44.27;99006.75;5048485;28;20482;-68
2022/03/28 01:07:51;;;;;;;4.72;0.77;;;;;;;-6.80;44.34;99016.34;5048049;28;20036;-67
2022/03/28 01:10:16;;;;;;;1.50;0.80;;;;;;;-6.74;44.90;99016.28;5053139;28;20046;-67
2022/03/28 01:12:42;;;;;;;5.13;1.00;;;;;;;-6.85;44.69;99012.94;5051348;28;20051;-68
2022/03/28 01:15:07;;;;;;;1.50;0.45;;;;;;;-6.86;44.50;99009.50;5044776;28;20072;-70
2022/03/28 01:20:16;;;;;;;5.13;1.17;;;;;;;-6.87;43.74;99006.94;5052120;28;20197;-68
2022/03/28 01:22:41;;;;;;;1.70;1.10;;;;;;;-6.89;44.57;99012.16;5037027;28;20130;-66
2022/03/28 01:25:07;;;;;;;3.28;1.27;;;;;;;-6.95;44.43;99012.22;5061590;28;20040;-67
2022/03/28 01:27:33;;;;;;;2.35;2.15;;;;;;;-6.97;44.28;99021.72;5034684;28;20036;-70
2022/03/28 01:29:58;;;;;;;1.60;0.80;;;;;;;-6.94;44.83;99026.03;5030381;28;20143;-66
2022/03/28 01:32:22;;;;;;;1.92;0.88;;;;;;;-7.03;45.63;99024.41;5059901;28;20111;-68
2022/03/28 01:34:47;;;;;;;0.95;0.80;;;;;;;-7.00;44.91;99017.44;5053286;28;20048;-68
2022/03/28 01:37:12;;;;;;;2.17;1.00;;;;;;;-6.95;44.58;99014.81;5037030;28;20141;-70
2022/03/28 01:39:37;;;;;;;0.80;0.60;;;;;;;-6.99;44.55;99003.59;5055684;28;20063;-70
2022/03/28 01:42:02;;;;;;;2.45;1.60;;;;;;;-6.99;45.55;99006.19;5055754;28;20039;-70
2022/03/28 01:44:27;;;;;;;1.08;0.85;;;;;;;-6.98;44.86;98994.97;5064791;28;20051;-70
2022/03/28 01:46:52;;;;;;;4.50;1.58;;;;;;;-6.94;45.21;99010.47;5059411;28;20143;-69
2022/03/28 01:49:18;;;;;;;1.70;1.60;;;;;;;-6.97;45.54;98996.69;5038505;28;20422;-68
2022/03/28 01:51:44;;;;;;;2.35;1.20;;;;;;;-6.91;44.92;98990.59;5055736;28;20551;-71
2022/03/28 01:54:09;;;;;;;2.95;1.30;;;;;;;-6.88;45.90;98980.16;5054418;28;20572;-71
2022/03/28 01:56:36;;;;;;;2.00;1.33;;;;;;;-6.99;44.99;98985.47;5054537;28;20051;-67
2022/03/28 01:59:01;;;;;;;1.40;0.95;;;;;;;-6.94;45.81;98979.38;5055475;28;20036;-68
2022/03/28 02:01:27;;;;;;;1.38;1.17;;;;;;;-6.89;44.78;98985.38;5043315;28;20102;-71
2022/03/28 02:03:52;;;;;;;1.55;1.05;;;;;;;-6.93;45.17;98984.56;5052239;28;20081;-69
2022/03/28 02:06:17;;;;;;;5.32;1.25;;;;;;;-6.97;44.84;98983.72;5028333;28;20052;-69
2022/03/28 02:08:42;;;;;;;5.53;2.10;;;;;;;-6.95;45.49;98994.06;5056800;28;20624;-71
2022/03/28 02:11:07;;;;;;;1.90;1.08;;;;;;;-6.94;44.77;98987.16;5047056;28;20527;-71
2022/03/28 02:13:32;;;;;;;2.00;0.82;;;;;;;-6.91;45.43;98990.59;5025183;28;20052;-70
2022/03/28 02:15:56;;;;;;;1.75;1.13;;;;;;;-7.00;45.43;98995.88;5064921;28;20040;-68
2022/03/28 02:18:21;;;;;;;7.57;1.52;;;;;;;-6.89;45.52;98993.16;5063791;28;20047;-73
2022/03/28 02:20:46;;;;;;;4.78;2.10;;;;;;;-7.03;45.13;98989.00;5059348;28;20085;-65
2022/03/28 02:23:11;;;;;;;2.15;1.15;;;;;;;-7.12;45.70;98996.88;5041124;28;20054;-64
2022/03/28 02:25:38;;;;;;;3.40;1.40;;;;;;;-7.03;46.35;98990.72;5041182;28;20115;-64
2022/03/28 02:28:04;;;;;;;1.95;1.10;;;;;;;-6.97;45.58;98991.50;5041079;28;20052;-65
2022/03/28 02:30:30;;;;;;;2.13;0.95;;;;;;;-6.95;45.97;98986.31;5023512;28;20035;-64
2022/03/28 02:32:55;;;;;;;3.30;1.27;;;;;;;-6.95;45.66;98991.47;5040743;28;20046;-65
2022/03/28 02:35:20;;;;;;;1.60;1.08;;;;;;;-6.94;45.49;98980.25;5040558;28;20040;-64
2022/03/28 02:37:47;;;;;;;2.83;1.10;;;;;;;-7.03;46.34;98982.97;5049483;28;20046;-65
2022/03/28 02:40:12;;;;;;;3.58;1.88;;;;;;;-6.98;46.07;98981.16;5056379;28;20044;-65
2022/03/28 02:42:37;;;;;;;1.60;1.05;;;;;;;-6.88;46.37;98974.16;5052093;28;20036;-65
2022/03/28 02:45:02;;;;;;;2.83;1.52;;;;;;;-6.85;46.21;98969.75;5032883;28;20136;-64
2022/03/28 02:47:28;;;;;;;1.98;1.60;;;;;;;-6.92;46.62;98968.13;5051994;28;20032;-67
2022/03/28 02:49:53;;;;;;;1.27;0.70;;;;;;;-6.80;45.87;98967.13;5028701;28;20093;-65
2022/03/28 02:52:17;;;;;;;1.83;1.13;;;;;;;-6.79;45.10;98950.69;5014718;28;20039;-65
2022/03/28 02:54:42;;;;;;;2.05;0.90;;;;;;;-6.76;45.75;98956.69;5029352;28;20254;-68
2022/03/28 02:57:07;;;;;;;2.03;1.10;;;;;;;-6.99;45.46;98956.13;5029750;28;20070;-69
2022/03/28 02:59:32;;;;;;;2.08;1.23;;;;;;;-6.94;46.33;98948.31;5048151;28;20044;-70
2022/03/28 03:01:56;;;;;;;1.38;0.82;;;;;;;-6.85;46.21;98958.53;5027893;28;20049;-73
2022/03/28 03:04:21;;;;;;;1.48;1.13;;;;;;;-6.79;45.87;98948.13;5028982;28;20032;-69
2022/03/28 03:06:46;;;;;;;4.63;1.10;;;;;;;-6.74;46.70;98946.31;5028983;28;20034;-70
2022/03/28 03:09:11;;;;;;;2.38;1.40;;;;;;;-6.70;46.73;98932.44;5052586;28;20440;-70
2022/03/28 03:11:36;;;;;;;3.03;1.42;;;;;;;-6.79;45.64;98946.38;5032128;28;20067;-72
2022/03/28 03:14:02;;;;;;;4.03;1.10;;;;;;;-6.77;45.72;98933.41;5038683;28;20044;-69
2022/03/28 03:16:27;;;;;;;1.90;1.30;;;;;;;-6.70;45.87;98940.22;5054763;28;20058;-65
2022/03/28 03:18:52;;;;;;;1.25;1.15;;;;;;;-6.69;45.50;98935.00;5064664;28;20134;-71
2022/03/28 03:21:17;;;;;;;3.30;1.75;;;;;;;-6.72;45.75;98919.50;5060550;28;20090;-72
2022/03/28 03:23:41;;;;;;;2.97;1.40;;;;;;;-6.64;46.36;98933.19;5039614;28;20059;-71
2022/03/28 03:26:06;;;;;;;3.00;0.77;;;;;;;-6.56;45.22;98924.47;5057125;28;20068;-65
2022/03/28 03:28:31;;;;;;;4.90;2.45;;;;;;;-6.58;46.01;98924.47;5058307;28;20059;-72
2022/03/28 03:30:55;;;;;;;1.67;1.50;;;;;;;-6.58;45.92;98919.31;5023709;28;20028;-71
2022/03/28 03:33:20;;;;;;;3.67;1.27;;;;;;;-6.40;46.08;98931.97;5029997;28;20032;-72
2022/03/28 03:35:45;;;;;;;2.88;1.95;;;;;;;-6.27;45.28;98912.75;5029249;28;20089;-72
2022/03/28 03:38:10;;;;;;;8.30;2.08;;;;;;;-6.17;44.79;98912.59;5046377;28;20112;-73
2022/03/28 03:40:35;;;;;;;1.58;1.08;;;;;;;-6.05;44.57;98913.25;5030306;28;20035;-74
2022/03/28 03:43:00;;;;;;;2.10;1.33;;;;;;;-5.94;44.64;98915.69;5045483;28;20119;-73
2022/03/28 03:45:25;;;;;;;2.78;1.55;;;;;;;-6.03;44.04;98908.06;5055026;28;20039;-69
2022/03/28 03:47:51;;;;;;;1.90;1.02;;;;;;;-5.96;45.07;98909.66;5039256;28;20127;-71
2022/03/28 03:50:15;;;;;;;5.45;2.00;;;;;;;-6.05;43.97;98912.41;5039056;28;20047;-70
2022/03/28 03:52:40;;;;;;;1.98;1.30;;;;;;;-5.99;45.26;98901.94;5057740;28;20108;-71
2022/03/28 03:55:06;;;;;;;4.13;1.73;;;;;;;-6.00;44.24;98898.50;5039342;28;20093;-70
2022/03/28 03:57:31;;;;;;;4.97;1.83;;;;;;;-5.95;45.30;98907.03;5058994;28;20093;-71
2022/03/28 03:59:56;;;;;;;3.42;1.48;;;;;;;-5.92;44.91;98916.50;5067131;28;20061;-71
2022/03/28 04:02:21;;;;;;;1.67;1.35;;;;;;;-5.77;44.44;98907.59;5058580;28;20044;-71
2022/03/28 04:04:46;;;;;;;2.80;1.77;;;;;;;-5.76;44.22;98917.09;5058170;28;20040;-71
2022/03/28 04:07:11;;;;;;;4.53;2.13;;;;;;;-5.74;43.24;98908.34;5059211;28;20394;-72
2022/03/28 04:09:36;;;;;;;2.55;1.48;;;;;;;-5.72;43.43;98926.50;5058074;28;20052;-71
2022/03/28 04:12:01;;;;;;;4.38;2.40;;;;;;;-5.77;43.48;98907.59;5025107;28;20354;-72
2022/03/28 04:14:26;;;;;;;2.00;1.90;;;;;;;-5.68;43.58;98908.25;5066892;28;20044;-71
2022/03/28 04:16:50;;;;;;;8.05;2.08;;;;;;;-5.61;43.98;98902.06;5065721;28;20047;-72
2022/03/28 04:19:15;;;;;;;2.95;1.50;;;;;;;-5.53;43.37;98902.75;5024657;28;20113;-72
2022/03/28 04:21:40;;;;;;;1.92;1.70;;;;;;;-5.53;43.11;98910.56;5040880;28;20124;-73
2022/03/28 04:24:05;;;;;;;3.58;1.88;;;;;;;-5.45;43.37;98901.78;5059083;28;20131;-73
2022/03/28 04:26:30;;;;;;;6.45;2.25;;;;;;;-5.51;43.46;98892.34;5057731;28;20043;-72
2022/03/28 04:28:55;;;;;;;3.50;1.40;;;;;;;-5.41;42.96;98901.69;5043068;28;20410;-73
2022/03/28 04:31:19;;;;;;;3.60;1.75;;;;;;;-5.42;43.28;98888.75;5074133;28;20066;-73
2022/03/28 04:33:44;;;;;;;4.65;1.75;;;;;;;-5.52;43.14;98893.25;5065396;28;20048;-73
2022/03/28 04:36:09;;;;;;;6.60;2.15;;;;;;;-5.44;43.25;98880.97;5042199;28;20097;-73
2022/03/28 04:38:34;;;;;;;4.57;1.60;;;;;;;-5.37;42.85;98882.56;5058375;28;20059;-73
2022/03/28 04:40:59;;;;;;;1.67;1.40;;;;;;;-5.24;43.03;98884.03;5040118;28;20542;-73
2022/03/28 04:43:23;;;;;;;5.03;1.45;;;;;;;-5.17;43.17;98882.16;5040256;28;20035;-73
2022/03/28 04:45:49;;;;;;;4.30;1.77;;;;;;;-5.11;42.37;98884.63;5058149;28;20510;-73
2022/03/28 04:48:14;;;;;;;3.63;2.25;;;;;;;-5.21;42.95;98876.19;5039980;28;20040;-72
2022/03/28 04:50:39;;;;;;;4.55;1.30;;;;;;;-5.15;42.87;98876.03;5060492;28;20040;-74
2022/03/28 04:53:04;;;;;;;3.15;1.77;;;;;;;-4.95;42.68;98869.56;5062944;28;20050;-73
2022/03/28 04:55:29;;;;;;;2.58;1.27;;;;;;;-4.82;42.79;98858.00;5047536;28;20085;-74
2022/03/28 04:57:54;;;;;;;3.13;1.75;;;;;;;-4.71;42.35;98855.16;5059613;28;20498;-74
2022/03/28 05:00:19;;;;;;;2.20;1.38;;;;;;;-4.55;41.92;98853.94;5044452;28;20055;-73
2022/03/28 05:02:44;;;;;;;1.80;1.48;;;;;;;-4.37;41.53;98850.88;5041521;28;20043;-71
2022/03/28 05:05:09;;;;;;;4.53;2.45;;;;;;;-4.30;41.35;98838.59;5059089;28;20063;-71
2022/03/28 05:07:35;;;;;;;8.57;1.55;;;;;;;-4.27;40.98;98828.09;5055650;28;20032;-71
2022/03/28 05:10:01;;;;;;;2.25;1.33;;;;;;;-4.17;41.24;98822.59;5039325;28;20514;-71
2022/03/28 05:12:26;;;;;;;2.25;1.60;;;;;;;-4.24;40.73;98818.47;5038697;28;20078;-71
2022/03/28 05:14:51;;;;;;;3.25;1.55;;;;;;;-4.27;40.39;98822.88;5057860;28;20076;-71
2022/03/28 05:17:24;;;;;;;4.50;1.63;;;;;;;-4.25;40.29;98811.53;5060059;28;20092;-71
2022/03/28 05:19:49;;;;;;;8.27;1.75;;;;;;;-4.13;40.52;98806.03;5063157;28;20044;-72
2022/03/28 05:22:14;;;;;;;6.13;3.58;;;;;;;-4.06;40.92;98796.31;5041645;28;20044;-73
2022/03/28 05:24:39;;;;;;;3.45;1.70;;;;;;;-3.87;40.86;98791.47;5046971;28;20054;-74
2022/03/28 05:27:04;;;;;;;2.03;1.73;;;;;;;-3.64;41.18;98777.81;5058312;28;20044;-72
2022/03/28 05:29:28;;;;;;;2.97;1.70;;;;;;;-3.57;40.19;98776.75;5056015;28;20974;-72
2022/03/28 05:31:53;;;;;;;8.10;3.00;;;;;;;-3.69;39.99;98770.97;5037661;28;20827;-72
2022/03/28 05:34:18;;;;;;;5.18;2.53;;;;;;;-3.79;39.84;98766.94;5055465;28;20101;-73
2022/03/28 05:36:45;;;;;;;4.68;1.98;;;;;;;-3.64;40.26;98750.03;5054348;28;20039;-72
2022/03/28 05:39:10;;;;;;;8.25;2.65;;;;;;;-3.45;40.26;98753.78;5054786;28;20112;-72
2022/03/28 05:41:35;;;;;;;2.42;1.90;;;;;;;-3.57;39.81;98748.94;5055067;28;20052;-72
2022/03/28 05:44:00;;;;;;;1.20;0.90;;;;;;;-3.75;39.71;98734.72;5037331;28;20069;-72
2022/03/28 05:46:25;;;;;;;3.25;1.40;;;;;;;-3.84;40.05;98724.56;5037553;28;20493;-73
2022/03/28 05:48:50;;;;;;;4.80;2.13;;;;;;;-3.89;39.25;98721.22;5054313;28;20459;-72
2022/03/28 05:51:15;;;;;;;5.00;1.88;;;;;;;-3.85;39.75;98722.00;5037198;28;20093;-73
2022/03/28 05:53:40;;;;;;;5.13;1.83;;;;;;;-3.67;39.86;98711.03;5056124;28;20036;-74
2022/03/28 05:56:05;;;;;;;4.93;2.15;;;;;;;-3.70;39.72;98714.56;5057100;28;20040;-72
2022/03/28 05:58:32;;;;;;;4.40;1.40;;;;;;;-3.65;40.08;98717.06;5057167;28;20043;-73
2022/03/28 06:00:58;;;;;;;5.95;2.55;;;;;;;-3.67;39.66;98701.47;5056946;28;20068;-72
2022/03/28 06:03:23;;;;;;;3.65;1.95;;;;;;;-3.68;38.91;98704.13;5056451;28;20062;-72
2022/03/28 06:05:48;;;;;;;3.88;1.85;;;;;;;-3.78;39.13;98702.69;5021977;28;20127;-72
2022/03/28 06:08:12;;;;;;;3.08;1.70;;;;;;;-3.75;38.90;98684.38;5056985;28;20044;-73
2022/03/28 06:10:37;;;;;;;5.50;1.60;;;;;;;-3.72;39.29;98685.13;5057011;28;20045;-72
2022/03/28 06:13:03;;;;;;;1.70;1.00;;;;;;;-3.63;39.70;98673.59;5056268;28;20040;-71
2022/03/28 06:15:30;;;;;;;4.90;1.70;;;;;;;-3.52;39.87;98668.91;5038028;28;20036;-74
2022/03/28 06:17:55;;;;;;;2.72;1.35;;;;;;;-3.44;39.51;98655.66;5054041;28;20155;-73
2022/03/28 06:20:20;;;;;;;3.55;1.65;;;;;;;-3.38;39.26;98656.28;5048023;28;20039;-72
2022/03/28 06:22:44;;;;;;;3.60;2.22;;;;;;;-3.39;38.99;98640.72;5039924;28;20044;-73
2022/03/28 06:25:09;;;;;;;5.97;1.55;;;;;;;-3.28;38.92;98628.22;5054332;28;20039;-72
2022/03/28 06:27:40;;;;;;;3.60;2.05;;;;;;;-3.18;38.01;98621.78;5037916;28;20048;-73
2022/03/28 06:30:06;;;;;;;7.65;2.05;;;;;;;-3.09;38.11;98613.66;5054399;28;20043;-71
2022/03/28 06:32:30;;;;;;;4.05;2.00;;;;;;;-2.87;37.99;98605.97;5054299;28;20111;-72
2022/03/28 06:34:55;;;;;;;3.53;1.83;;;;;;;-2.86;37.97;98609.44;5037576;28;20046;-73
2022/03/28 06:37:23;;;;;;;4.85;1.75;;;;;;;-2.73;36.57;98598.53;5054899;28;20048;-72
2022/03/28 06:39:47;;;;;;;2.47;1.65;;;;;;;-2.50;38.17;98602.09;5033144;28;20139;-73
2022/03/28 06:42:12;;;;;;;3.35;1.63;;;;;;;-2.51;37.15;98592.56;5034476;28;20131;-73
2022/03/28 06:44:37;;;;;;;2.75;1.38;;;;;;;-2.49;36.89;98586.38;5035354;28;20040;-75
2022/03/28 06:47:02;;;;;;;4.03;1.92;;;;;;;-2.44;36.62;98584.44;5033797;28;20074;-72
2022/03/28 06:49:27;;;;;;;4.93;1.38;;;;;;;-2.53;37.28;98573.50;5016882;28;20064;-72
2022/03/28 06:51:52;;;;;;;2.95;1.40;;;;;;;-2.48;37.21;98574.19;5036965;28;20047;-72
2022/03/28 06:54:19;;;;;;;2.92;1.45;;;;;;;-2.46;37.37;98554.94;5020543;28;20041;-72
2022/03/28 06:56:45;;;;;;;2.40;1.70;;;;;;;-2.52;37.04;98549.09;5037239;28;20478;-72
2022/03/28 06:59:10;;;;;;;1.88;1.17;;;;;;;-2.53;36.88;98545.66;5036934;28;20394;-72
2022/03/28 07:01:36;;;;;;;7.40;1.85;;;;;;;-2.58;36.77;98540.59;5037032;28;20384;-71
2022/03/28 07:04:02;;;;;;;2.65;1.48;;;;;;;-2.47;36.55;98528.91;5053789;28;20123;-72
2022/03/28 07:06:26;;;;;;;3.50;1.15;;;;;;;-2.37;36.32;98512.03;5038595;28;20087;-72
2022/03/28 07:08:53;;;;;;;1.90;1.17;;;;;;;-2.48;36.28;98509.78;5037610;28;20072;-72
2022/03/28 07:11:18;;;;;;;2.33;1.52;;;;;;;-2.46;35.60;98509.72;5039640;28;20435;-71
2022/03/28 07:13:42;;;;;;;3.70;1.13;;;;;;;-2.52;36.27;98491.72;5039582;28;20469;-72
2022/03/28 07:16:07;;;;;;;3.22;1.67;;;;;;;-2.66;35.70;98495.66;5036858;28;20044;-73
2022/03/28 07:18:32;;;;;;;1.85;1.30;;;;;;;-2.54;36.09;98477.84;5021472;28;20045;-72
2022/03/28 07:20:57;;;;;;;2.35;0.93;;;;;;;-2.43;35.58;98470.47;5037259;28;20036;-71
2022/03/28 07:23:22;;;;;;;3.05;1.70;;;;;;;-2.59;35.58;98458.00;5036907;28;20040;-72
2022/03/28 07:25:47;;;;;;;5.38;2.03;;;;;;;-2.62;34.72;98447.69;5036867;28;20551;-72
2022/03/28 07:28:14;;;;;;;3.22;1.52;;;;;;;-2.48;35.08;98467.22;5038403;28;20562;-72
2022/03/28 07:30:40;;;;;;;3.78;1.73;;;;;;;-2.77;35.21;98440.44;5019936;28;20071;-74
2022/03/28 07:33:09;;;;;;;1.95;1.45;;;;;;;-2.40;35.79;98418.19;5036858;28;20078;-72
2022/03/28 07:35:36;;;;;;;1.00;0.68;;;;;;;-1.90;34.95;98430.06;5038369;28;20048;-73
2022/03/28 07:38:10;;;;;;;5.65;1.70;;;;;;;-2.37;35.07;98405.03;5036640;28;20060;-72
2022/03/28 07:40:36;;;;;;;6.20;1.33;;;;;;;-2.45;36.06;98420.94;5035852;28;20089;-72
2022/03/28 07:43:02;;;;;;;2.22;1.50;;;;;;;-2.48;35.16;98394.16;5036607;28;20132;-73
2022/03/28 07:45:26;;;;;;;0.98;0.77;;;;;;;-2.42;35.56;98391.28;5036393;28;20040;-72
2022/03/28 07:47:51;;;;;;;3.47;0.77;;;;;;;-2.74;36.16;98376.88;5037874;28;20127;-73
2022/03/28 07:50:16;;;;;;;5.43;1.70;;;;;;;-2.85;35.88;98373.84;5036965;28;20079;-72
2022/03/28 07:52:41;;;;;;;1.15;1.05;;;;;;;-2.65;35.77;98373.91;5036132;28;20044;-73
2022/03/28 07:55:07;;;;;;;2.45;1.20;;;;;;;-2.67;36.29;98384.41;5036307;28;20071;-75
2022/03/28 07:57:34;;;;;;;3.67;1.45;;;;;;;-2.94;37.82;98365.47;5037708;28;20140;-74
2022/03/28 07:59:59;;;;;;;4.68;1.00;;;;;;;-2.97;37.35;98362.97;5019433;28;20125;-72
2022/03/28 08:02:24;;;;;;;2.05;0.98;;;;;;;-2.84;38.50;98352.91;5034953;28;20127;-72
2022/03/28 08:04:48;;;;;;;4.00;1.45;;;;;;;-3.03;40.13;98364.94;5037355;28;20036;-72
2022/03/28 08:07:13;;;;;;;1.80;1.02;;;;;;;-2.95;40.52;98331.63;5037108;28;20048;-72
2022/03/28 08:09:39;;;;;;;3.63;1.65;;;;;;;-3.10;40.44;98321.75;5035356;28;20040;-72
2022/03/28 08:12:05;;;;;;;2.85;1.55;;;;;;;-3.01;41.22;98324.00;5035646;28;20131;-72
2022/03/28 08:14:31;;;;;;;1.60;0.98;;;;;;;-2.92;41.40;98315.84;5036989;28;20044;-72
2022/03/28 08:16:56;;;;;;;4.60;1.00;;;;;;;-3.15;42.26;98301.06;5035534;28;20040;-71
2022/03/28 08:19:22;;;;;;;1.27;1.17;;;;;;;-3.23;43.08;98286.63;5018907;28;20119;-72
2022/03/28 08:21:46;;;;;;;1.48;1.02;;;;;;;-3.14;43.40;98294.97;5018623;28;20499;-72
2022/03/28 08:24:11;;;;;;;7.88;1.67;;;;;;;-3.28;44.80;98275.56;5036797;28;20072;-72
2022/03/28 08:26:36;;;;;;;3.20;1.35;;;;;;;-3.26;45.49;98279.78;5037060;28;20040;-73
2022/03/28 08:29:01;;;;;;;3.05;1.65;;;;;;;-3.10;44.83;98274.84;5037668;28;20051;-73
2022/03/28 08:31:28;;;;;;;5.15;2.20;;;;;;;-3.17;46.16;98250.78;5038594;28;20048;-72
2022/03/28 08:33:52;;;;;;;2.35;1.27;;;;;;;-3.38;47.56;98244.63;5038625;28;20071;-73
2022/03/28 08:36:17;;;;;;;2.35;1.60;;;;;;;-3.63;49.63;98230.84;5037620;28;20083;-72
2022/03/28 08:38:42;;;;;;;5.90;2.33;;;;;;;-3.63;52.15;98222.16;5046390;28;20090;-73
2022/03/28 08:41:12;;;;;;;4.80;2.20;;;;;;;-3.72;54.36;98223.34;5063136;28;20052;-71
2022/03/28 08:43:37;;;;;;;2.53;1.67;;;;;;;-3.90;55.01;98205.81;5058459;28;20043;-72
2022/03/28 08:46:02;;;;;;;3.53;1.42;;;;;;;-3.73;54.59;98211.25;5058089;28;20559;-72
2022/03/28 08:48:33;;;;;;;4.88;1.73;;;;;;;-3.93;55.90;98190.28;5056296;28;20448;-72
2022/03/28 08:50:58;;;;;;;6.40;1.58;;;;;;;-3.94;56.92;98186.84;5056536;28;20124;-71
2022/03/28 08:53:23;;;;;;;1.23;0.77;;;;;;;-3.76;55.89;98175.75;5038368;28;20124;-72
2022/03/28 08:55:48;;;;;;;3.10;1.92;;;;;;;-3.87;57.91;98151.03;5057401;28;20052;-71
2022/03/28 08:58:13;;;;;;;5.25;1.50;;;;;;;-3.89;56.66;98134.63;5022179;28;20043;-72
2022/03/28 09:00:38;;;;;;;3.63;2.10;;;;;;;-3.91;57.03;98147.69;5055325;28;20067;-72
2022/03/28 09:03:04;;;;;;;1.58;1.17;;;;;;;-4.21;59.67;98126.25;5057039;28;20066;-72
2022/03/28 09:05:34;;;;;;;1.25;0.52;;;;;;;-4.08;59.38;98132.72;5021677;28;20039;-70
2022/03/28 09:07:59;;;;;;;1.13;1.02;;;;;;;-4.13;60.33;98131.16;5038425;28;20409;-71
2022/03/28 09:10:28;;;;;;;1.05;0.98;;;;;;;-4.55;67.31;98120.56;5059005;28;20132;-73
2022/03/28 09:12:59;;;;;;;4.10;1.33;;;;;;;-4.50;68.75;98106.47;5028240;28;20136;-72
2022/03/28 09:15:24;;;;;;;6.82;0.88;;;;;;;-4.43;68.53;98107.13;5058403;28;20046;-70
2022/03/28 09:17:56;;;;;;;4.13;1.73;;;;;;;-4.51;75.07;98106.53;5037791;28;20040;-71
2022/03/28 09:20:23;;;;;;;1.25;1.17;;;;;;;-4.44;76.64;98095.88;5037293;28;20028;-71
2022/03/28 09:22:49;;;;;;;4.75;2.10;;;;;;;-4.32;75.63;98101.53;5054273;28;20048;-71
2022/03/28 09:25:17;;;;;;;4.53;2.63;;;;;;;-4.40;74.06;98075.78;5022050;28;20040;-71
2022/03/28 09:27:44;;;;;;;3.58;2.00;;;;;;;-4.32;74.37;98071.16;5021057;28;20039;-70
2022/03/28 09:30:14;;;;;;;5.82;2.25;;;;;;;-4.21;75.49;98078.56;5055843;28;20040;-73
2022/03/28 09:32:52;;;;;;;3.95;2.13;;;;;;;-4.06;69.41;98058.00;5037603;28;20055;-72
2022/03/28 09:35:21;;;;;;;3.88;2.45;;;;;;;-4.14;67.68;98044.44;5037801;28;20128;-73
2022/03/28 09:38:01;;;;;;;2.60;2.00;;;;;;;-4.43;71.36;98052.50;5056401;28;20056;-73
2022/03/28 09:40:27;;;;;;;1.77;1.50;;;;;;;-4.19;70.66;98032.53;5058893;28;20135;-73
2022/03/28 09:42:52;;;;;;;1.80;1.67;;;;;;;-4.19;71.24;98037.75;5039440;28;20040;-72
2022/03/28 09:45:19;;;;;;;3.30;1.42;;;;;;;-4.35;73.88;98023.59;5056088;28;20117;-71
2022/03/28 09:48:01;;;;;;;1.42;1.25;;;;;;;-4.26;75.27;98013.69;5038463;28;20044;-72
2022/03/28 09:50:31;;;;;;;3.35;2.05;;;;;;;-4.41;76.41;98003.91;5038742;28;20044;-72
2022/03/28 09:52:56;;;;;;;4.05;2.10;;;;;;;-4.41;76.91;97999.53;5038763;28;20040;-72
2022/03/28 09:55:20;;;;;;;3.03;2.03;;;;;;;-4.38;76.22;97989.00;5041037;28;20142;-71
2022/03/28 09:57:45;;;;;;;4.78;2.67;;;;;;;-4.33;74.27;97991.44;5041997;28;20044;-75
2022/03/28 10:00:13;;;;;;;2.50;2.30;;;;;;;-4.33;74.82;97978.44;5041426;28;20059;-72
2022/03/28 10:02:38;;;;;;;1.90;1.55;;;;;;;-4.43;75.64;97988.34;5043086;28;20071;-72
2022/03/28 10:05:04;;;;;;;4.47;2.75;;;;;;;-4.54;77.57;97977.50;5063557;28;20040;-72
2022/03/28 10:07:31;;;;;;;1.15;0.98;;;;;;;-4.18;74.24;97971.78;5024389;28;20192;-72
2022/03/28 10:09:57;;;;;;;11.95;1.80;;;;;;;-4.31;75.56;97955.81;5054585;28;20045;-70
2022/03/28 10:12:23;;;;;;;5.28;2.10;;;;;;;-4.37;76.33;97956.03;5055468;28;20048;-71
2022/03/28 10:14:53;;;;;;;3.00;1.58;;;;;;;-4.36;77.12;97949.94;5037919;28;20080;-72
2022/03/28 10:17:19;;;;;;;8.32;2.70;;;;;;;-4.39;78.57;97943.09;5039638;28;20060;-72
2022/03/28 10:19:47;;;;;;;35.60;4.85;;;;;;;-4.18;76.97;97941.41;5029713;28;20032;-73
2022/03/28 10:22:21;;;;;;;103.57;11.65;;;;;;;-4.37;76.09;97922.22;5045202;28;20143;-75
2022/03/28 10:24:47;;;;;;;0.88;0.88;;;;;;;-4.33;77.52;97925.56;5056549;28;20044;-73
2022/03/28 10:27:13;;;;;;;4.32;2.92;;;;;;;-4.44;79.73;97921.63;5024640;28;20050;-74
2022/03/28 10:29:40;;;;;;;2.78;2.30;;;;;;;-4.36;79.93;97920.47;5061094;28;20606;-74
2022/03/28 10:32:15;;;;;;;7.78;1.75;;;;;;;-4.28;80.43;97915.78;5058717;28;20545;-72
2022/03/28 10:34:44;;;;;;;5.32;3.80;;;;;;;-4.24;80.17;97897.41;5040907;28;20067;-71
2022/03/28 10:37:30;;;;;;;4.18;2.50;;;;;;;-4.04;79.49;97891.41;5040787;28;20080;-71
2022/03/28 10:40:25;;;;;;;3.75;2.08;;;;;;;-3.97;76.49;97881.59;5024138;28;20049;-72
2022/03/28 10:43:04;;;;;;;5.32;3.45;;;;;;;-4.19;79.56;97866.88;5040574;28;20413;-71
2022/03/28 10:45:35;;;;;;;19.85;3.75;;;;;;;-4.16;79.87;97858.06;5022277;28;20046;-71
2022/03/28 10:48:00;;;;;;;5.57;3.28;;;;;;;-4.21;80.50;97836.63;5058564;28;20086;-70
2022/03/28 10:50:31;;;;;;;6.20;2.72;;;;;;;-4.20;79.63;97844.38;5057852;28;20502;-69
2022/03/28 10:53:16;;;;;;;2.92;1.88;;;;;;;-4.06;79.51;97831.59;5042376;28;20063;-69
2022/03/28 10:55:46;;;;;;;31.38;4.82;;;;;;;-4.09;79.24;97829.16;5058575;28;20035;-71
2022/03/28 10:58:21;;;;;;;2.40;1.52;;;;;;;-3.85;79.18;97827.28;5050326;28;20044;-69
2022/03/28 11:01:08;;;;;;;6.38;3.10;;;;;;;-3.72;78.68;97831.00;5041870;28;20127;-69
2022/03/28 11:03:38;;;;;;;2.50;2.30;;;;;;;-3.70;77.69;97810.13;5051697;28;20128;-71
2022/03/28 11:06:04;;;;;;;3.85;2.05;;;;;;;-3.73;77.41;97828.50;5030824;28;20036;-70
2022/03/28 11:08:38;;;;;;;16.60;4.30;;;;;;;-3.76;77.97;97823.41;5030003;28;20506;-70
2022/03/28 11:11:33;;;;;;;4.80;2.70;;;;;;;-3.93;79.70;97810.25;5064725;28;20036;-70
2022/03/28 11:14:03;;;;;;;6.55;2.35;;;;;;;-3.63;79.61;97814.16;4918632;28;20066;-70
2022/03/28 11:16:57;;;;;;;5.70;2.00;;;;;;;-3.54;77.46;97790.31;4915319;28;20065;-69
2022/03/28 11:19:23;;;;;;;3.00;2.65;;;;;;;-3.45;78.37;97778.63;4898922;29;20593;-70
2022/03/28 11:22:08;;;;;;;7.40;3.60;;;;;;;-3.50;77.73;97771.00;4898442;29;20628;-70
2022/03/28 11:24:48;;;;;;;5.32;2.78;;;;;;;-3.62;79.15;97760.31;4898601;29;20059;-73
2022/03/28 11:27:16;;;;;;;3.65;2.90;;;;;;;-3.54;79.98;97753.84;4896241;29;20079;-76
2022/03/28 11:29:42;;;;;;;5.85;2.75;;;;;;;-3.56;80.24;97741.81;4898864;29;20047;-78
2022/03/28 11:32:13;;;;;;;4.20;2.38;;;;;;;-3.18;80.21;97737.44;4898611;29;20077;-77